Natchez, MS (39120)

11:50 PM CST on January 17, 2018 (GMT -0600)
Morgantown | | Change Station
Active Advisory: Hard Freeze Warning

Elev 200 ft 31.57 °N, 91.36 °W | Updated 19 seconds ago

Clear
Clear
17.5 °F
Feels Like 18 °F
N
0.0
Wind Variable Wind from NE

Today
High -- | Low -- °F
--% Chance of Precip.
Yesterday
High -- | Low -- °F
Precip. -- in
Pressure 30.66 in
Visibility 10.0 miles
Clouds Clear
Windchill 18 °F
Dew Point 14 °F
Humidity 86%
Rainfall 0.00 in
Snow Depth Not available.
7:04 AM 5:26 PM
New Moon, 1% visible
METAR KHEZ 180456Z AUTO 04004KT 10SM CLR M07/M11 A3063 RMK AO2 SLP381 T10721106 410171111 FZRANO
Pressure 30.66 in
Visibility 10.0 miles
Clouds Clear
Windchill 18 °F
Dew Point 14 °F
Humidity 86%
Rainfall 0.00 in
Snow Depth Not available.
7:04 AM 5:26 PM
New Moon, 1% visible
METAR KHEZ 180456Z AUTO 04004KT 10SM CLR M07/M11 A3063 RMK AO2 SLP381 T10721106 410171111 FZRANO

Get Your Daily Forecast Email!

Thanks for signing up!

Be on the lookout for a verification email in your inbox.

You'll start receiving severe weather alerts in your inbox..

×

10-Day Weather Forecast

Almanac

Astronomy

Jan. 17, 2018 Rise Set
Actual Time
Civil Twilight
Nautical Twilight
Astronomical Twilight
Moon
Length of Visible Light
Length of Day
Tomorrow will be .
, % of the Moon is Illuminated

Today's Extremes

State Highs State Lows

Community

WunderPhotos

Category 6

Welcome to Category 6. This is the collective home for Weather Underground's featured writeups by Dr. Jeff Masters (right), Bob Henson (left), Chris Burt, and other regular contributors.

Nearby

Air Quality

  Air Quality AQ Index Pollutant
Not available.

Snow Depth

Station Depth Elevation

Earthquake Activity

City Distance Mag. Time & Date
Minimum magnitude displayed is 2.5.

Coastal Water Temperatures

Place Temperature

Stations

Nearby Weather Stations

Station Location Temp. Windchill Dew Point Humidity Wind Precip. Elev Updated Type
                   

Watches & Warnings

Hard Freeze Warning
Issued: 9:08 PM CST Jan. 17, 2018 – National Weather Service

... Hard freeze warning remains in effect until noon CST
Thursday...

* temperature... lows tonight ranging from 10 to 15 degrees, with
single digits possible in isolated areas.

* Impacts... prolonged exposure could lead to hypothermia and may
harm pets and livestock. Exposed plumbing is in danger of
being damaged.

Precautionary/preparedness actions...

A hard freeze warning means a prolonged period of sub-freezing
temperatures is ongoing. These conditions will be dangerous to
people and pets without adequate shelter and could damage exposed
pipes.